createdAt,value
2023-06-21T00:01:36.253Z,48.72
2023-06-21T00:04:02.873Z,48.11
2023-06-21T00:06:32.301Z,48.31
2023-06-21T00:08:59.037Z,47.98
2023-06-21T00:11:25.655Z,48.01
2023-06-21T00:13:56.102Z,47.81
2023-06-21T00:16:25.751Z,47.67
2023-06-21T00:18:52.383Z,47.59
2023-06-21T00:21:18.946Z,47.70
2023-06-21T00:23:45.460Z,47.71
2023-06-21T00:26:11.937Z,47.78
2023-06-21T00:28:38.607Z,47.92
2023-06-21T00:31:09.648Z,48.14
2023-06-21T00:33:36.339Z,48.12
2023-06-21T00:36:03.370Z,48.12
2023-06-21T00:38:35.736Z,48.29
2023-06-21T00:41:08.992Z,48.36
2023-06-21T00:43:35.826Z,48.03
2023-06-21T00:46:02.469Z,47.89
2023-06-21T00:48:30.192Z,47.74
2023-06-21T00:50:57.685Z,48.02
2023-06-21T00:53:27.399Z,47.70
2023-06-21T00:55:54.504Z,47.53
2023-06-21T00:58:21.562Z,47.90
2023-06-21T01:00:51.362Z,47.80
2023-06-21T01:03:23.029Z,47.68
2023-06-21T01:06:25.397Z,47.50
2023-06-21T01:09:22.510Z,47.40
2023-06-21T01:12:01.662Z,47.28
2023-06-21T01:14:35.390Z,47.13
2023-06-21T01:17:04.770Z,47.00
2023-06-21T01:19:47.997Z,46.53
2023-06-21T01:22:39.113Z,46.47
2023-06-21T01:25:08.051Z,46.09
2023-06-21T01:27:37.319Z,46.19
2023-06-21T01:30:06.673Z,45.89
2023-06-21T01:32:33.762Z,46.23
2023-06-21T01:35:02.198Z,46.08
2023-06-21T01:37:28.752Z,46.26
2023-06-21T01:39:55.239Z,46.51
2023-06-21T01:42:21.821Z,46.47
2023-06-21T01:44:49.529Z,46.12
2023-06-21T01:47:16.319Z,46.06
2023-06-21T01:49:43.936Z,46.35
2023-06-21T01:52:11.607Z,46.42
2023-06-21T01:54:42.379Z,46.06
2023-06-21T01:57:12.053Z,46.17
2023-06-21T01:59:39.113Z,46.21
2023-06-21T02:02:06.771Z,46.11
2023-06-21T02:04:34.864Z,46.36
2023-06-21T02:07:03.508Z,46.50
2023-06-21T02:09:31.972Z,46.59
2023-06-21T02:11:59.635Z,46.40
2023-06-21T02:14:26.182Z,46.24
2023-06-21T02:16:52.700Z,45.67
2023-06-21T02:19:19.510Z,45.99
2023-06-21T02:21:46.124Z,45.47
2023-06-21T02:24:12.967Z,45.66
2023-06-21T02:26:39.616Z,45.33
2023-06-21T02:29:06.129Z,45.25
2023-06-21T02:31:34.183Z,45.06
2023-06-21T02:34:00.944Z,45.07
2023-06-21T02:36:27.506Z,44.85
2023-06-21T02:38:54.063Z,44.92
2023-06-21T02:41:20.643Z,44.87
2023-06-21T02:43:47.208Z,44.89
2023-06-21T02:46:13.747Z,44.67
2023-06-21T02:48:40.334Z,44.85
2023-06-21T02:51:06.825Z,44.99
2023-06-21T02:53:33.316Z,45.07
2023-06-21T02:56:00.174Z,45.08
2023-06-21T02:58:27.053Z,45.11
2023-06-21T03:00:53.705Z,45.15
2023-06-21T03:03:20.478Z,45.30
2023-06-21T03:05:47.167Z,45.44
2023-06-21T03:08:13.762Z,45.57
2023-06-21T03:10:40.455Z,45.23
2023-06-21T03:13:07.186Z,45.46
2023-06-21T03:15:33.862Z,45.69
2023-06-21T03:18:00.458Z,45.73
2023-06-21T03:20:27.777Z,45.85
2023-06-21T03:22:54.590Z,45.84
2023-06-21T03:25:21.124Z,46.03
2023-06-21T03:27:48.782Z,45.61
2023-06-21T03:30:15.762Z,45.54
2023-06-21T03:32:48.757Z,45.70
2023-06-21T03:35:19.571Z,45.46
2023-06-21T03:37:47.709Z,45.82
2023-06-21T03:40:15.386Z,45.84
2023-06-21T03:42:43.856Z,45.71
2023-06-21T03:45:11.253Z,45.80
2023-06-21T03:47:40.586Z,45.72
2023-06-21T03:50:11.078Z,45.68
2023-06-21T03:52:37.727Z,45.49
2023-06-21T03:55:05.727Z,45.71
2023-06-21T03:57:32.332Z,45.90
2023-06-21T03:59:58.864Z,45.99
2023-06-21T04:02:25.514Z,46.03
2023-06-21T04:04:52.702Z,45.97
2023-06-21T04:07:21.735Z,45.88
2023-06-21T04:09:49.089Z,45.38
2023-06-21T04:12:15.643Z,45.33
2023-06-21T04:14:42.241Z,45.12
2023-06-21T04:17:08.802Z,44.93
2023-06-21T04:19:35.338Z,44.91
2023-06-21T04:22:01.957Z,45.08
2023-06-21T04:24:28.517Z,45.21
2023-06-21T04:26:56.425Z,45.01
2023-06-21T04:29:23.276Z,45.29
2023-06-21T04:31:53.196Z,45.25
2023-06-21T04:34:20.578Z,45.19
2023-06-21T04:36:48.661Z,45.38
2023-06-21T04:39:17.244Z,45.29
2023-06-21T04:41:46.939Z,45.29
2023-06-21T04:44:18.188Z,45.06
2023-06-21T04:46:48.021Z,45.34
2023-06-21T04:49:16.990Z,45.16
2023-06-21T04:51:44.609Z,45.23
2023-06-21T04:54:11.317Z,45.16
2023-06-21T04:56:37.935Z,44.96
2023-06-21T04:59:04.708Z,45.22
2023-06-21T05:01:32.277Z,45.26
2023-06-21T05:03:58.870Z,45.45
2023-06-21T05:06:28.423Z,45.05
2023-06-21T05:08:55.171Z,45.04
2023-06-21T05:11:21.736Z,45.14
2023-06-21T05:13:48.485Z,45.15
2023-06-21T05:16:15.063Z,44.95
2023-06-21T05:18:41.785Z,44.92
2023-06-21T05:21:08.385Z,45.38
2023-06-21T05:23:35.024Z,45.38
2023-06-21T05:26:04.794Z,44.89
2023-06-21T05:28:31.851Z,45.19
2023-06-21T05:30:58.484Z,45.04
2023-06-21T05:33:25.076Z,44.69
2023-06-21T05:35:51.601Z,44.72
2023-06-21T05:38:18.121Z,44.56
2023-06-21T05:40:44.774Z,44.59
2023-06-21T05:43:11.413Z,44.42
2023-06-21T05:45:39.550Z,44.31
2023-06-21T05:48:06.483Z,44.53
2023-06-21T05:50:33.188Z,44.35
2023-06-21T05:53:00.247Z,44.11
2023-06-21T05:55:27.295Z,44.16
2023-06-21T05:57:53.836Z,43.99
2023-06-21T06:00:20.558Z,43.94
2023-06-21T06:02:47.277Z,43.70
2023-06-21T06:05:13.868Z,43.63
2023-06-21T06:07:40.497Z,43.50
2023-06-21T06:10:07.456Z,43.60
2023-06-21T06:12:34.777Z,43.54
2023-06-21T06:15:01.775Z,43.38
2023-06-21T06:17:28.749Z,43.33
2023-06-21T06:19:55.361Z,43.24
2023-06-21T06:22:22.811Z,43.48
2023-06-21T06:24:49.814Z,43.40
2023-06-21T06:27:16.421Z,43.32
2023-06-21T06:29:42.998Z,43.19
2023-06-21T06:32:09.622Z,43.51
2023-06-21T06:34:36.182Z,42.95
2023-06-21T06:37:13.625Z,43.13
2023-06-21T06:39:41.629Z,43.12
2023-06-21T06:42:09.510Z,43.48
2023-06-21T06:44:36.080Z,43.57
2023-06-21T06:47:02.796Z,43.19
2023-06-21T06:49:29.396Z,42.87
2023-06-21T06:51:56.063Z,43.14
2023-06-21T06:54:22.688Z,43.03
2023-06-21T06:56:49.362Z,42.69
2023-06-21T06:59:16.078Z,42.96
2023-06-21T07:01:42.593Z,42.65
2023-06-21T07:04:09.231Z,43.02
2023-06-21T07:06:36.029Z,42.75
2023-06-21T07:09:03.710Z,43.15
2023-06-21T07:11:32.054Z,43.01
2023-06-21T07:13:58.771Z,42.49
2023-06-21T07:16:25.550Z,42.75
2023-06-21T07:18:52.205Z,42.48
2023-06-21T07:21:21.892Z,42.46
2023-06-21T07:23:50.398Z,42.12
2023-06-21T07:26:17.076Z,42.08
2023-06-21T07:28:44.706Z,41.98
2023-06-21T07:31:11.539Z,42.33
2023-06-21T07:33:38.518Z,42.06
2023-06-21T07:36:06.287Z,42.31
2023-06-21T07:38:32.810Z,41.97
2023-06-21T07:40:59.481Z,41.44
2023-06-21T07:43:26.118Z,41.45
2023-06-21T07:45:59.879Z,41.55
2023-06-21T07:48:39.129Z,41.17
2023-06-21T07:51:05.662Z,41.11
2023-06-21T07:53:33.140Z,41.24
2023-06-21T07:56:16.091Z,40.51
2023-06-21T07:58:43.732Z,41.14
2023-06-21T08:01:10.713Z,40.85
2023-06-21T08:03:37.364Z,40.58
2023-06-21T08:06:04.049Z,41.02
2023-06-21T08:08:30.562Z,40.45
2023-06-21T08:10:57.418Z,40.50
2023-06-21T08:13:24.291Z,40.52
2023-06-21T08:15:52.308Z,40.77
2023-06-21T08:18:18.915Z,40.33
2023-06-21T08:20:45.522Z,39.90
2023-06-21T08:23:12.074Z,40.46
2023-06-21T08:25:38.599Z,40.29
2023-06-21T08:28:05.636Z,39.85
2023-06-21T08:30:32.295Z,40.11
2023-06-21T08:32:58.810Z,39.69
2023-06-21T08:35:25.463Z,39.76
2023-06-21T08:37:57.454Z,39.68
2023-06-21T08:40:32.772Z,40.24
2023-06-21T08:43:00.665Z,40.25
2023-06-21T08:45:27.828Z,39.60
2023-06-21T08:47:59.631Z,39.66
2023-06-21T08:50:26.427Z,39.49
2023-06-21T08:52:54.843Z,39.58
2023-06-21T08:55:24.732Z,40.07
2023-06-21T08:58:03.528Z,39.64
2023-06-21T09:00:35.167Z,40.18
2023-06-21T09:03:16.380Z,39.41
2023-06-21T09:05:53.470Z,39.52
2023-06-21T09:08:20.435Z,39.96
2023-06-21T09:10:51.629Z,39.96
2023-06-21T09:13:23.308Z,39.66
2023-06-21T09:15:51.484Z,40.11
2023-06-21T09:18:19.704Z,39.52
2023-06-21T09:20:48.689Z,40.10
2023-06-21T09:23:15.416Z,39.40
2023-06-21T09:25:43.376Z,39.35
2023-06-21T09:28:10.024Z,39.37
2023-06-21T09:30:39.044Z,39.38
2023-06-21T09:33:06.814Z,39.06
2023-06-21T09:35:34.066Z,39.40
2023-06-21T09:38:00.538Z,39.41
2023-06-21T09:40:27.099Z,38.91
2023-06-21T09:42:54.568Z,38.95
2023-06-21T09:45:21.464Z,39.10
2023-06-21T09:47:48.292Z,39.42
2023-06-21T09:50:15.130Z,38.85
2023-06-21T09:52:44.457Z,38.77
2023-06-21T09:55:15.514Z,38.74
2023-06-21T09:57:42.266Z,39.34
2023-06-21T10:00:09.429Z,38.90
2023-06-21T10:02:42.687Z,38.72
2023-06-21T10:05:20.380Z,38.79
2023-06-21T10:07:47.849Z,38.14
2023-06-21T10:10:15.442Z,38.71
2023-06-21T10:12:56.384Z,38.14
2023-06-21T10:15:23.781Z,38.39
2023-06-21T10:17:59.910Z,37.99
2023-06-21T10:20:32.366Z,37.51
2023-06-21T10:23:02.434Z,37.89
2023-06-21T10:25:29.830Z,38.38
2023-06-21T10:27:59.722Z,38.18
2023-06-21T10:30:28.422Z,37.92
2023-06-21T10:32:58.969Z,37.83
2023-06-21T10:35:27.373Z,37.79
2023-06-21T10:38:05.011Z,37.47
2023-06-21T10:40:34.128Z,37.41
2023-06-21T10:43:00.903Z,37.43
2023-06-21T10:45:30.085Z,37.46
2023-06-21T10:47:57.757Z,37.62
2023-06-21T10:50:25.856Z,37.36
2023-06-21T10:52:55.124Z,37.96
2023-06-21T10:55:24.736Z,38.02
2023-06-21T10:57:56.717Z,37.92
2023-06-21T11:00:25.266Z,37.69
2023-06-21T11:02:53.200Z,37.34
2023-06-21T11:05:20.963Z,37.55
2023-06-21T11:07:58.460Z,37.17
2023-06-21T11:10:43.790Z,36.80
2023-06-21T11:13:12.089Z,36.49
2023-06-21T11:15:44.010Z,36.85
2023-06-21T11:18:11.862Z,36.77
2023-06-21T11:20:52.868Z,36.59
2023-06-21T11:23:25.028Z,36.62
2023-06-21T11:26:16.023Z,36.31
2023-06-21T11:28:48.226Z,36.17
2023-06-21T11:31:24.074Z,36.28
2023-06-21T11:33:57.507Z,36.32
2023-06-21T11:36:32.494Z,35.96
2023-06-21T11:39:20.602Z,36.35
2023-06-21T11:41:48.228Z,35.85
2023-06-21T11:44:20.935Z,35.77
2023-06-21T11:46:48.548Z,35.99
2023-06-21T11:49:15.205Z,35.31
2023-06-21T11:52:04.544Z,35.53
2023-06-21T11:54:33.234Z,35.61
2023-06-21T11:56:59.890Z,35.66
2023-06-21T11:59:27.530Z,35.40
2023-06-21T12:01:54.604Z,35.05
2023-06-21T12:04:28.387Z,35.35
2023-06-21T12:06:58.972Z,34.69
2023-06-21T12:09:25.833Z,35.16
2023-06-21T12:11:52.593Z,34.91
2023-06-21T12:14:20.655Z,34.56
2023-06-21T12:16:50.761Z,34.74
2023-06-21T12:19:17.443Z,34.36
2023-06-21T12:21:44.053Z,34.04
2023-06-21T12:24:10.631Z,33.80
2023-06-21T12:26:51.408Z,34.27
2023-06-21T12:29:18.053Z,34.00
2023-06-21T12:31:44.859Z,33.76
2023-06-21T12:34:16.774Z,34.23
2023-06-21T12:36:46.643Z,34.06
2023-06-21T12:39:15.579Z,33.87
2023-06-21T12:41:44.399Z,33.76
2023-06-21T12:44:21.799Z,34.03
2023-06-21T12:46:49.074Z,33.76
2023-06-21T12:49:15.972Z,33.63
2023-06-21T12:51:42.936Z,33.82
2023-06-21T12:54:24.008Z,33.72
2023-06-21T12:56:54.180Z,33.93
2023-06-21T12:59:21.053Z,33.48
2023-06-21T13:01:47.714Z,33.41
2023-06-21T13:04:16.361Z,33.07
2023-06-21T13:06:43.614Z,33.26
2023-06-21T13:09:11.427Z,33.31
2023-06-21T13:11:39.266Z,33.45
2023-06-21T13:14:07.050Z,33.10
2023-06-21T13:16:33.957Z,33.48
2023-06-21T13:19:00.421Z,33.45
2023-06-21T13:21:27.124Z,33.45
2023-06-21T13:23:55.367Z,33.48
2023-06-21T13:26:24.727Z,33.60
2023-06-21T13:28:51.954Z,33.60
2023-06-21T13:31:22.718Z,33.52
2023-06-21T13:33:50.746Z,33.54
2023-06-21T13:36:17.494Z,33.48
2023-06-21T13:38:44.409Z,33.67
2023-06-21T13:41:10.975Z,33.23
2023-06-21T13:43:37.584Z,33.32
2023-06-21T13:46:04.722Z,33.26
2023-06-21T13:48:31.502Z,33.40
2023-06-21T13:50:58.130Z,33.35
2023-06-21T13:53:24.761Z,33.41
2023-06-21T13:55:51.444Z,33.19
2023-06-21T13:58:18.278Z,33.19
2023-06-21T14:00:44.910Z,33.35
2023-06-21T14:03:11.617Z,33.34
2023-06-21T14:05:38.483Z,33.24
2023-06-21T14:08:05.238Z,33.27
2023-06-21T14:10:33.262Z,33.86
2023-06-21T14:12:59.836Z,33.90
2023-06-21T14:15:26.629Z,34.36
2023-06-21T14:17:53.442Z,34.64
2023-06-21T14:20:20.068Z,34.21
2023-06-21T14:22:46.575Z,34.73
2023-06-21T14:25:13.230Z,35.15
2023-06-21T14:27:39.863Z,34.95
2023-06-21T14:30:07.035Z,35.21
2023-06-21T14:32:34.357Z,35.54
2023-06-21T14:35:01.213Z,35.62
2023-06-21T14:37:28.448Z,35.67
2023-06-21T14:39:55.992Z,35.74
2023-06-21T14:42:24.067Z,35.74
2023-06-21T14:44:51.231Z,35.97
2023-06-21T14:47:17.818Z,36.13
2023-06-21T14:49:44.772Z,36.20
2023-06-21T14:52:13.022Z,36.08
2023-06-21T14:54:40.156Z,36.39
2023-06-21T14:57:06.627Z,36.49
2023-06-21T14:59:33.163Z,36.85
2023-06-21T15:01:59.782Z,36.35
2023-06-21T15:04:26.388Z,36.30
2023-06-21T15:06:52.962Z,36.73
2023-06-21T15:09:19.517Z,37.09
2023-06-21T15:11:46.102Z,36.61
2023-06-21T15:14:12.644Z,37.21
2023-06-21T15:16:46.900Z,36.75
2023-06-21T15:19:13.790Z,37.31
2023-06-21T15:21:40.641Z,36.84
2023-06-21T15:24:07.869Z,36.86
2023-06-21T15:26:35.303Z,37.34
2023-06-21T15:29:02.724Z,37.57
2023-06-21T15:31:29.380Z,37.21
2023-06-21T15:33:55.974Z,37.59
2023-06-21T15:36:22.617Z,37.40
2023-06-21T15:38:49.161Z,37.63
2023-06-21T15:41:16.210Z,37.48
2023-06-21T15:43:42.995Z,37.06
2023-06-21T15:46:09.673Z,37.62
2023-06-21T15:48:36.338Z,37.47
2023-06-21T15:51:02.945Z,37.47
2023-06-21T15:53:29.496Z,37.20
2023-06-21T15:55:56.041Z,37.46
2023-06-21T15:58:22.569Z,37.69
2023-06-21T16:00:49.117Z,37.38
2023-06-21T16:03:15.847Z,37.27
2023-06-21T16:05:42.468Z,37.67
2023-06-21T16:08:09.078Z,37.42
2023-06-21T16:10:35.621Z,37.44
2023-06-21T16:13:04.349Z,37.29
2023-06-21T16:15:31.316Z,37.46
2023-06-21T16:17:58.312Z,37.24
2023-06-21T16:20:24.943Z,37.69
2023-06-21T16:22:51.460Z,37.42
2023-06-21T16:25:18.085Z,37.78
2023-06-21T16:27:44.669Z,37.78
2023-06-21T16:30:13.595Z,37.74
2023-06-21T16:32:40.167Z,37.46
2023-06-21T16:35:07.162Z,37.89
2023-06-21T16:37:33.758Z,38.11
2023-06-21T16:40:00.380Z,38.01
2023-06-21T16:42:30.284Z,37.93
2023-06-21T16:44:57.195Z,37.87
2023-06-21T16:47:24.458Z,37.71
2023-06-21T16:49:51.089Z,37.59
2023-06-21T16:52:17.714Z,37.77
2023-06-21T16:54:44.418Z,38.24
2023-06-21T16:57:17.702Z,37.50
2023-06-21T16:59:45.439Z,37.81
2023-06-21T17:02:11.899Z,38.06
2023-06-21T17:04:38.618Z,37.63
2023-06-21T17:07:05.482Z,37.99
2023-06-21T17:09:32.080Z,37.68
2023-06-21T17:11:58.807Z,37.71
2023-06-21T17:14:25.385Z,37.85
2023-06-21T17:16:52.041Z,38.36
2023-06-21T17:19:19.283Z,38.30
2023-06-21T17:21:45.826Z,38.26
2023-06-21T17:24:12.323Z,37.85
2023-06-21T17:26:38.868Z,38.16
2023-06-21T17:29:05.466Z,38.25
2023-06-21T17:31:32.206Z,38.34
2023-06-21T17:33:58.866Z,38.21
2023-06-21T17:36:25.479Z,37.89
2023-06-21T17:38:52.080Z,38.56
2023-06-21T17:41:18.569Z,38.48
2023-06-21T17:43:45.120Z,38.81
2023-06-21T17:46:11.632Z,38.81
2023-06-21T17:48:39.608Z,38.01
2023-06-21T17:51:06.416Z,38.11
2023-06-21T17:53:33.005Z,38.88
2023-06-21T17:55:59.678Z,38.67
2023-06-21T17:58:26.282Z,38.29
2023-06-21T18:00:53.239Z,38.64
2023-06-21T18:03:20.228Z,38.21
2023-06-21T18:05:46.950Z,38.34
2023-06-21T18:08:13.488Z,39.06
2023-06-21T18:10:40.050Z,38.28
2023-06-21T18:13:07.052Z,38.96
2023-06-21T18:15:33.520Z,38.75
2023-06-21T18:18:00.358Z,38.34
2023-06-21T18:20:27.205Z,38.31
2023-06-21T18:22:55.789Z,38.37
2023-06-21T18:25:22.445Z,38.56
2023-06-21T18:27:49.895Z,38.88
2023-06-21T18:30:16.630Z,38.87
2023-06-21T18:32:43.306Z,39.08
2023-06-21T18:35:10.637Z,38.53
2023-06-21T18:37:44.090Z,38.46
2023-06-21T18:40:11.018Z,38.92
2023-06-21T18:42:38.933Z,38.78
2023-06-21T18:45:07.062Z,38.63
2023-06-21T18:47:33.747Z,38.81
2023-06-21T18:50:00.348Z,38.50
2023-06-21T18:52:27.130Z,38.65
2023-06-21T18:54:54.245Z,38.63
2023-06-21T18:57:22.282Z,39.20
2023-06-21T18:59:48.873Z,38.61
2023-06-21T19:02:15.531Z,39.17
2023-06-21T19:04:44.334Z,38.89
2023-06-21T19:07:11.276Z,38.82
2023-06-21T19:09:37.844Z,38.81
2023-06-21T19:12:04.631Z,38.66
2023-06-21T19:14:31.217Z,38.44
2023-06-21T19:16:57.792Z,38.74
2023-06-21T19:19:24.283Z,39.08
2023-06-21T19:21:50.852Z,39.04
2023-06-21T19:24:17.413Z,39.07
2023-06-21T19:26:45.902Z,39.40
2023-06-21T19:29:12.536Z,39.60
2023-06-21T19:31:39.225Z,39.30
2023-06-21T19:34:09.124Z,39.09
2023-06-21T19:36:35.801Z,39.14
2023-06-21T19:39:02.361Z,39.45
2023-06-21T19:41:28.928Z,39.36
2023-06-21T19:43:55.535Z,39.57
2023-06-21T19:46:22.588Z,39.63
2023-06-21T19:48:49.262Z,39.85
2023-06-21T19:51:15.863Z,39.93
2023-06-21T19:53:42.368Z,40.10
2023-06-21T19:56:09.214Z,39.77
2023-06-21T19:58:35.797Z,39.93
2023-06-21T20:01:03.520Z,40.03
2023-06-21T20:03:30.221Z,39.80
2023-06-21T20:05:56.862Z,39.93
2023-06-21T20:08:23.934Z,40.13
2023-06-21T20:10:50.561Z,39.70
2023-06-21T20:13:17.112Z,39.80
2023-06-21T20:15:44.808Z,39.62
2023-06-21T20:18:11.431Z,39.63
2023-06-21T20:20:38.219Z,39.74
2023-06-21T20:23:04.934Z,39.55
2023-06-21T20:25:31.711Z,39.81
2023-06-21T20:27:58.229Z,39.73
2023-06-21T20:30:25.183Z,39.77
2023-06-21T20:32:51.802Z,40.15
2023-06-21T20:35:18.464Z,39.91
2023-06-21T20:37:45.020Z,40.03
2023-06-21T20:40:15.604Z,40.00
2023-06-21T20:42:42.620Z,40.10
2023-06-21T20:45:22.262Z,40.16
2023-06-21T20:47:52.036Z,40.14
2023-06-21T20:50:18.712Z,40.15
2023-06-21T20:52:45.630Z,40.28
2023-06-21T20:55:12.288Z,40.40
2023-06-21T20:57:38.852Z,40.70
2023-06-21T21:00:11.950Z,40.57
2023-06-21T21:02:39.009Z,40.79
2023-06-21T21:05:05.631Z,40.97
2023-06-21T21:07:32.166Z,40.64
2023-06-21T21:09:58.734Z,41.15
2023-06-21T21:12:27.363Z,40.88
2023-06-21T21:14:54.774Z,41.08
2023-06-21T21:17:21.797Z,41.32
2023-06-21T21:19:48.368Z,41.69
2023-06-21T21:22:15.318Z,41.40
2023-06-21T21:24:41.877Z,41.40
2023-06-21T21:27:08.417Z,41.63
2023-06-21T21:29:34.947Z,41.54
2023-06-21T21:32:03.391Z,41.49
2023-06-21T21:34:30.672Z,41.56
2023-06-21T21:37:00.123Z,41.38
2023-06-21T21:39:26.877Z,41.71
2023-06-21T21:41:53.603Z,42.07
2023-06-21T21:44:20.920Z,42.25
2023-06-21T21:46:48.542Z,42.44
2023-06-21T21:49:16.263Z,42.36
2023-06-21T21:51:43.034Z,42.57
2023-06-21T21:54:09.740Z,42.90
2023-06-21T21:56:36.344Z,42.45
2023-06-21T21:59:02.994Z,42.56
2023-06-21T22:01:29.579Z,42.70
2023-06-21T22:03:56.464Z,42.91
2023-06-21T22:06:23.195Z,43.21
2023-06-21T22:08:49.764Z,42.99
2023-06-21T22:11:16.943Z,43.43
2023-06-21T22:13:45.221Z,42.91
2023-06-21T22:16:13.509Z,42.78
2023-06-21T22:18:41.216Z,43.61
2023-06-21T22:21:10.231Z,43.17
2023-06-21T22:23:36.834Z,43.75
2023-06-21T22:26:05.373Z,44.04
2023-06-21T22:28:32.349Z,43.97
2023-06-21T22:30:59.104Z,44.08
2023-06-21T22:33:25.736Z,44.40
2023-06-21T22:35:52.604Z,44.16
2023-06-21T22:38:19.238Z,44.43
2023-06-21T22:40:46.042Z,44.73
2023-06-21T22:43:12.615Z,44.64
2023-06-21T22:45:42.931Z,45.23
2023-06-21T22:48:09.801Z,45.02
2023-06-21T22:50:36.807Z,45.33
2023-06-21T22:53:05.121Z,45.54
2023-06-21T22:55:32.025Z,45.50
2023-06-21T22:58:00.256Z,45.56
2023-06-21T23:00:27.091Z,45.62
2023-06-21T23:02:53.965Z,45.74
2023-06-21T23:05:20.862Z,45.39
2023-06-21T23:07:47.570Z,45.88
2023-06-21T23:10:14.119Z,45.97
2023-06-21T23:12:45.771Z,45.65
2023-06-21T23:15:15.374Z,45.90
2023-06-21T23:17:43.558Z,46.35
2023-06-21T23:20:11.955Z,46.28
2023-06-21T23:22:39.964Z,46.38
2023-06-21T23:25:13.519Z,46.33
2023-06-21T23:27:43.105Z,46.23
2023-06-21T23:30:20.615Z,46.43
2023-06-21T23:32:58.522Z,46.68
2023-06-21T23:35:25.150Z,46.52
2023-06-21T23:37:55.349Z,46.32
2023-06-21T23:40:22.078Z,46.48
2023-06-21T23:42:52.749Z,46.68
2023-06-21T23:45:19.877Z,46.52
2023-06-21T23:47:46.469Z,46.84
2023-06-21T23:50:13.214Z,46.61
2023-06-21T23:52:39.853Z,46.93
2023-06-21T23:55:07.249Z,46.93
2023-06-21T23:57:34.098Z,46.78
